sensor_id;sensor_type;location;lat;lon;timestamp;temperature;humidity
36552;DHT22;22559;54.176;12.102;2023-03-21T00:00:24;7.90;99.90
36552;DHT22;22559;54.176;12.102;2023-03-21T00:02:50;7.90;99.90
36552;DHT22;22559;54.176;12.102;2023-03-21T00:05:16;7.90;99.90
36552;DHT22;22559;54.176;12.102;2023-03-21T00:07:42;7.90;99.90
36552;DHT22;22559;54.176;12.102;2023-03-21T00:10:08;7.90;99.90
36552;DHT22;22559;54.176;12.102;2023-03-21T00:12:34;7.90;99.90
36552;DHT22;22559;54.176;12.102;2023-03-21T00:15:03;8.00;99.90
36552;DHT22;22559;54.176;12.102;2023-03-21T00:17:31;8.00;99.90
36552;DHT22;22559;54.176;12.102;2023-03-21T00:20:02;7.90;99.90
36552;DHT22;22559;54.176;12.102;2023-03-21T00:22:33;8.00;99.90
36552;DHT22;22559;54.176;12.102;2023-03-21T00:24:58;8.00;99.90
36552;DHT22;22559;54.176;12.102;2023-03-21T00:27:24;7.90;99.90
36552;DHT22;22559;54.176;12.102;2023-03-21T00:29:50;7.90;99.90
36552;DHT22;22559;54.176;12.102;2023-03-21T00:32:16;7.90;99.90
36552;DHT22;22559;54.176;12.102;2023-03-21T00:34:43;8.00;99.90
36552;DHT22;22559;54.176;12.102;2023-03-21T00:37:09;7.90;99.90
36552;DHT22;22559;54.176;12.102;2023-03-21T00:39:37;7.90;99.90
36552;DHT22;22559;54.176;12.102;2023-03-21T00:42:03;7.90;99.90
36552;DHT22;22559;54.176;12.102;2023-03-21T00:44:29;8.00;99.90
36552;DHT22;22559;54.176;12.102;2023-03-21T00:46:56;8.00;99.90
36552;DHT22;22559;54.176;12.102;2023-03-21T00:49:27;8.00;99.90
36552;DHT22;22559;54.176;12.102;2023-03-21T00:51:54;8.00;99.90
36552;DHT22;22559;54.176;12.102;2023-03-21T00:54:19;8.00;99.90
36552;DHT22;22559;54.176;12.102;2023-03-21T00:56:45;8.00;99.90
36552;DHT22;22559;54.176;12.102;2023-03-21T00:59:11;8.00;99.90
36552;DHT22;22559;54.176;12.102;2023-03-21T01:01:36;8.00;99.90
36552;DHT22;22559;54.176;12.102;2023-03-21T01:04:02;8.00;99.90
36552;DHT22;22559;54.176;12.102;2023-03-21T01:06:35;8.00;99.90
36552;DHT22;22559;54.176;12.102;2023-03-21T01:09:04;8.00;99.90
36552;DHT22;22559;54.176;12.102;2023-03-21T01:11:30;8.00;99.90
36552;DHT22;22559;54.176;12.102;2023-03-21T01:13:57;8.00;99.90
36552;DHT22;22559;54.176;12.102;2023-03-21T01:16:23;8.10;99.90
36552;DHT22;22559;54.176;12.102;2023-03-21T01:18:49;8.10;99.90
36552;DHT22;22559;54.176;12.102;2023-03-21T01:21:16;8.10;99.90
36552;DHT22;22559;54.176;12.102;2023-03-21T01:23:42;8.00;99.90
36552;DHT22;22559;54.176;12.102;2023-03-21T01:26:09;8.00;99.90
36552;DHT22;22559;54.176;12.102;2023-03-21T01:28:36;8.00;99.90
36552;DHT22;22559;54.176;12.102;2023-03-21T01:31:03;8.00;99.90
36552;DHT22;22559;54.176;12.102;2023-03-21T01:33:30;8.10;99.90
36552;DHT22;22559;54.176;12.102;2023-03-21T01:35:57;8.00;99.90
36552;DHT22;22559;54.176;12.102;2023-03-21T01:38:23;8.00;99.90
36552;DHT22;22559;54.176;12.102;2023-03-21T01:40:49;8.00;99.90
36552;DHT22;22559;54.176;12.102;2023-03-21T01:43:21;8.00;99.90
36552;DHT22;22559;54.176;12.102;2023-03-21T01:48:55;8.00;99.90
36552;DHT22;22559;54.176;12.102;2023-03-21T01:51:23;8.10;99.90
36552;DHT22;22559;54.176;12.102;2023-03-21T01:53:50;8.10;99.90
36552;DHT22;22559;54.176;12.102;2023-03-21T01:56:22;8.00;99.90
36552;DHT22;22559;54.176;12.102;2023-03-21T01:58:48;8.10;99.90
36552;DHT22;22559;54.176;12.102;2023-03-21T02:01:15;8.00;99.90
36552;DHT22;22559;54.176;12.102;2023-03-21T02:03:43;8.10;99.90
36552;DHT22;22559;54.176;12.102;2023-03-21T02:09:02;8.10;99.90
36552;DHT22;22559;54.176;12.102;2023-03-21T02:11:29;8.10;99.90
36552;DHT22;22559;54.176;12.102;2023-03-21T02:13:56;8.10;99.90
36552;DHT22;22559;54.176;12.102;2023-03-21T02:27:11;8.10;99.90
36552;DHT22;22559;54.176;12.102;2023-03-21T02:35:49;8.10;99.90
36552;DHT22;22559;54.176;12.102;2023-03-21T02:38:30;8.10;99.90
36552;DHT22;22559;54.176;12.102;2023-03-21T02:41:02;8.10;99.90
36552;DHT22;22559;54.176;12.102;2023-03-21T02:43:40;8.10;99.90
36552;DHT22;22559;54.176;12.102;2023-03-21T02:46:16;8.10;99.90
36552;DHT22;22559;54.176;12.102;2023-03-21T02:48:50;8.10;99.90
36552;DHT22;22559;54.176;12.102;2023-03-21T02:51:19;8.10;99.90
36552;DHT22;22559;54.176;12.102;2023-03-21T02:53:49;8.10;99.90
36552;DHT22;22559;54.176;12.102;2023-03-21T02:56:18;8.10;99.90
36552;DHT22;22559;54.176;12.102;2023-03-21T02:58:45;8.10;99.90
36552;DHT22;22559;54.176;12.102;2023-03-21T03:01:12;8.10;99.90
36552;DHT22;22559;54.176;12.102;2023-03-21T03:03:38;8.10;99.90
36552;DHT22;22559;54.176;12.102;2023-03-21T03:06:23;8.20;99.90
36552;DHT22;22559;54.176;12.102;2023-03-21T03:11:43;8.20;99.90
36552;DHT22;22559;54.176;12.102;2023-03-21T03:14:33;8.20;99.90
36552;DHT22;22559;54.176;12.102;2023-03-21T03:20:58;8.20;99.90
36552;DHT22;22559;54.176;12.102;2023-03-21T03:25:52;8.20;99.90
36552;DHT22;22559;54.176;12.102;2023-03-21T03:28:26;8.20;99.90
36552;DHT22;22559;54.176;12.102;2023-03-21T03:30:55;8.20;99.90
36552;DHT22;22559;54.176;12.102;2023-03-21T03:33:24;8.10;99.90
36552;DHT22;22559;54.176;12.102;2023-03-21T03:35:52;8.20;99.90
36552;DHT22;22559;54.176;12.102;2023-03-21T03:38:20;8.20;99.90
36552;DHT22;22559;54.176;12.102;2023-03-21T03:40:57;8.20;99.90
36552;DHT22;22559;54.176;12.102;2023-03-21T03:43:38;8.10;99.90
36552;DHT22;22559;54.176;12.102;2023-03-21T03:46:12;8.20;99.90
36552;DHT22;22559;54.176;12.102;2023-03-21T03:48:49;8.20;99.90
36552;DHT22;22559;54.176;12.102;2023-03-21T03:51:27;8.10;99.90
36552;DHT22;22559;54.176;12.102;2023-03-21T03:54:04;8.20;99.90
36552;DHT22;22559;54.176;12.102;2023-03-21T03:56:31;8.20;99.90
36552;DHT22;22559;54.176;12.102;2023-03-21T03:58:57;8.20;99.90
36552;DHT22;22559;54.176;12.102;2023-03-21T04:01:23;8.20;99.90
36552;DHT22;22559;54.176;12.102;2023-03-21T04:03:48;8.10;99.90
36552;DHT22;22559;54.176;12.102;2023-03-21T04:06:15;8.10;99.90
36552;DHT22;22559;54.176;12.102;2023-03-21T04:08:41;8.10;99.90
36552;DHT22;22559;54.176;12.102;2023-03-21T04:11:08;8.10;99.90
36552;DHT22;22559;54.176;12.102;2023-03-21T04:13:34;8.10;99.90
36552;DHT22;22559;54.176;12.102;2023-03-21T04:16:00;8.10;99.90
36552;DHT22;22559;54.176;12.102;2023-03-21T04:18:26;8.10;99.90
36552;DHT22;22559;54.176;12.102;2023-03-21T04:20:52;8.10;99.90
36552;DHT22;22559;54.176;12.102;2023-03-21T04:23:18;8.00;99.90
36552;DHT22;22559;54.176;12.102;2023-03-21T04:25:44;8.00;99.90
36552;DHT22;22559;54.176;12.102;2023-03-21T04:28:11;8.00;99.90
36552;DHT22;22559;54.176;12.102;2023-03-21T04:30:37;8.00;99.90
36552;DHT22;22559;54.176;12.102;2023-03-21T04:33:03;8.00;99.90
36552;DHT22;22559;54.176;12.102;2023-03-21T04:35:29;8.00;99.90
36552;DHT22;22559;54.176;12.102;2023-03-21T04:37:55;8.00;99.90
36552;DHT22;22559;54.176;12.102;2023-03-21T04:40:21;8.00;99.90
36552;DHT22;22559;54.176;12.102;2023-03-21T04:42:47;8.00;99.90
36552;DHT22;22559;54.176;12.102;2023-03-21T04:45:14;8.10;99.90
36552;DHT22;22559;54.176;12.102;2023-03-21T04:47:40;8.10;99.90
36552;DHT22;22559;54.176;12.102;2023-03-21T04:50:08;8.10;99.90
36552;DHT22;22559;54.176;12.102;2023-03-21T04:52:34;8.10;99.90
36552;DHT22;22559;54.176;12.102;2023-03-21T04:54:59;8.10;99.90
36552;DHT22;22559;54.176;12.102;2023-03-21T04:57:26;8.10;99.90
36552;DHT22;22559;54.176;12.102;2023-03-21T04:59:52;8.10;99.90
36552;DHT22;22559;54.176;12.102;2023-03-21T05:02:17;8.10;99.90
36552;DHT22;22559;54.176;12.102;2023-03-21T05:04:43;8.10;99.90
36552;DHT22;22559;54.176;12.102;2023-03-21T05:07:09;8.10;99.90
36552;DHT22;22559;54.176;12.102;2023-03-21T05:09:35;8.10;99.90
36552;DHT22;22559;54.176;12.102;2023-03-21T05:12:01;8.00;99.90
36552;DHT22;22559;54.176;12.102;2023-03-21T05:14:27;8.00;99.90
36552;DHT22;22559;54.176;12.102;2023-03-21T05:16:53;8.00;99.90
36552;DHT22;22559;54.176;12.102;2023-03-21T05:19:29;8.00;99.90
36552;DHT22;22559;54.176;12.102;2023-03-21T05:22:07;8.00;99.90
36552;DHT22;22559;54.176;12.102;2023-03-21T05:24:34;8.00;99.90
36552;DHT22;22559;54.176;12.102;2023-03-21T05:27:02;8.00;99.90
36552;DHT22;22559;54.176;12.102;2023-03-21T05:29:32;8.00;99.90
36552;DHT22;22559;54.176;12.102;2023-03-21T05:32:01;8.00;99.90
36552;DHT22;22559;54.176;12.102;2023-03-21T05:34:27;8.00;99.90
36552;DHT22;22559;54.176;12.102;2023-03-21T05:36:53;8.00;99.90
36552;DHT22;22559;54.176;12.102;2023-03-21T05:39:19;7.90;99.90
36552;DHT22;22559;54.176;12.102;2023-03-21T05:41:45;8.00;99.90
36552;DHT22;22559;54.176;12.102;2023-03-21T05:44:10;7.90;99.90
36552;DHT22;22559;54.176;12.102;2023-03-21T05:46:36;7.90;99.90
36552;DHT22;22559;54.176;12.102;2023-03-21T05:49:02;7.90;99.90
36552;DHT22;22559;54.176;12.102;2023-03-21T05:51:28;7.90;99.90
36552;DHT22;22559;54.176;12.102;2023-03-21T05:53:53;7.90;99.90
36552;DHT22;22559;54.176;12.102;2023-03-21T05:56:19;7.90;99.90
36552;DHT22;22559;54.176;12.102;2023-03-21T05:58:45;8.00;99.90
36552;DHT22;22559;54.176;12.102;2023-03-21T06:01:11;7.90;99.90
36552;DHT22;22559;54.176;12.102;2023-03-21T06:03:36;8.00;99.90
36552;DHT22;22559;54.176;12.102;2023-03-21T06:06:02;8.00;99.90
36552;DHT22;22559;54.176;12.102;2023-03-21T06:08:28;8.00;99.90
36552;DHT22;22559;54.176;12.102;2023-03-21T06:10:54;8.00;99.90
36552;DHT22;22559;54.176;12.102;2023-03-21T06:13:20;8.00;99.90
36552;DHT22;22559;54.176;12.102;2023-03-21T06:15:46;8.00;99.90
36552;DHT22;22559;54.176;12.102;2023-03-21T06:18:12;8.10;99.90
36552;DHT22;22559;54.176;12.102;2023-03-21T06:20:37;8.10;99.90
36552;DHT22;22559;54.176;12.102;2023-03-21T06:23:03;8.10;99.90
36552;DHT22;22559;54.176;12.102;2023-03-21T06:25:29;8.10;99.90
36552;DHT22;22559;54.176;12.102;2023-03-21T06:27:54;8.10;99.90
36552;DHT22;22559;54.176;12.102;2023-03-21T06:30:20;8.10;99.90
36552;DHT22;22559;54.176;12.102;2023-03-21T06:32:45;8.10;99.90
36552;DHT22;22559;54.176;12.102;2023-03-21T06:35:11;8.20;99.90
36552;DHT22;22559;54.176;12.102;2023-03-21T06:37:40;8.20;99.90
36552;DHT22;22559;54.176;12.102;2023-03-21T06:40:07;8.20;99.90
36552;DHT22;22559;54.176;12.102;2023-03-21T06:42:34;8.20;99.90
36552;DHT22;22559;54.176;12.102;2023-03-21T06:44:59;8.20;99.90
36552;DHT22;22559;54.176;12.102;2023-03-21T06:47:25;8.20;99.90
36552;DHT22;22559;54.176;12.102;2023-03-21T06:49:51;8.20;99.90
36552;DHT22;22559;54.176;12.102;2023-03-21T06:52:16;8.20;99.90
36552;DHT22;22559;54.176;12.102;2023-03-21T06:54:42;8.30;99.90
36552;DHT22;22559;54.176;12.102;2023-03-21T06:57:08;8.30;99.90
36552;DHT22;22559;54.176;12.102;2023-03-21T06:59:33;8.30;99.90
36552;DHT22;22559;54.176;12.102;2023-03-21T07:02:00;8.30;99.90
36552;DHT22;22559;54.176;12.102;2023-03-21T07:04:26;8.30;99.90
36552;DHT22;22559;54.176;12.102;2023-03-21T07:06:52;8.40;99.90
36552;DHT22;22559;54.176;12.102;2023-03-21T07:09:18;8.30;99.90
36552;DHT22;22559;54.176;12.102;2023-03-21T07:11:48;8.30;99.90
36552;DHT22;22559;54.176;12.102;2023-03-21T07:14:17;8.40;99.90
36552;DHT22;22559;54.176;12.102;2023-03-21T07:16:43;8.40;99.90
36552;DHT22;22559;54.176;12.102;2023-03-21T07:19:09;8.40;99.90
36552;DHT22;22559;54.176;12.102;2023-03-21T07:21:34;8.40;99.90
36552;DHT22;22559;54.176;12.102;2023-03-21T07:24:00;8.40;99.90
36552;DHT22;22559;54.176;12.102;2023-03-21T07:26:26;8.40;99.90
36552;DHT22;22559;54.176;12.102;2023-03-21T07:28:51;8.40;99.90
36552;DHT22;22559;54.176;12.102;2023-03-21T07:31:17;8.40;99.90
36552;DHT22;22559;54.176;12.102;2023-03-21T07:33:44;8.50;99.90
36552;DHT22;22559;54.176;12.102;2023-03-21T07:36:12;8.50;99.90
36552;DHT22;22559;54.176;12.102;2023-03-21T07:38:40;8.50;99.90
36552;DHT22;22559;54.176;12.102;2023-03-21T07:41:05;8.50;99.90
36552;DHT22;22559;54.176;12.102;2023-03-21T07:43:31;8.50;99.90
36552;DHT22;22559;54.176;12.102;2023-03-21T07:45:57;8.50;99.90
36552;DHT22;22559;54.176;12.102;2023-03-21T07:48:24;8.50;99.90
36552;DHT22;22559;54.176;12.102;2023-03-21T07:50:49;8.60;99.90
36552;DHT22;22559;54.176;12.102;2023-03-21T07:53:15;8.60;99.90
36552;DHT22;22559;54.176;12.102;2023-03-21T07:55:41;8.50;99.90
36552;DHT22;22559;54.176;12.102;2023-03-21T07:58:07;8.50;99.90
36552;DHT22;22559;54.176;12.102;2023-03-21T08:00:32;8.60;99.90
36552;DHT22;22559;54.176;12.102;2023-03-21T08:02:58;8.50;99.90
36552;DHT22;22559;54.176;12.102;2023-03-21T08:05:30;8.60;99.90
36552;DHT22;22559;54.176;12.102;2023-03-21T08:07:57;8.60;99.90
36552;DHT22;22559;54.176;12.102;2023-03-21T08:10:24;8.60;99.90
36552;DHT22;22559;54.176;12.102;2023-03-21T08:12:50;8.60;99.90
36552;DHT22;22559;54.176;12.102;2023-03-21T08:15:15;8.60;99.90
36552;DHT22;22559;54.176;12.102;2023-03-21T08:17:41;8.60;99.90
36552;DHT22;22559;54.176;12.102;2023-03-21T08:20:14;8.60;99.90
36552;DHT22;22559;54.176;12.102;2023-03-21T08:22:40;8.60;99.90
36552;DHT22;22559;54.176;12.102;2023-03-21T08:25:07;8.60;99.90
36552;DHT22;22559;54.176;12.102;2023-03-21T08:27:33;8.70;99.90
36552;DHT22;22559;54.176;12.102;2023-03-21T08:29:59;8.70;99.90
36552;DHT22;22559;54.176;12.102;2023-03-21T08:32:26;8.70;99.90
36552;DHT22;22559;54.176;12.102;2023-03-21T08:35:00;8.80;99.90
36552;DHT22;22559;54.176;12.102;2023-03-21T08:37:26;8.80;99.90
36552;DHT22;22559;54.176;12.102;2023-03-21T08:39:52;8.80;99.90
36552;DHT22;22559;54.176;12.102;2023-03-21T08:42:18;8.90;99.90
36552;DHT22;22559;54.176;12.102;2023-03-21T08:44:45;8.90;99.90
36552;DHT22;22559;54.176;12.102;2023-03-21T08:47:11;8.90;99.90
36552;DHT22;22559;54.176;12.102;2023-03-21T08:49:37;8.90;99.90
36552;DHT22;22559;54.176;12.102;2023-03-21T08:52:03;8.90;99.90
36552;DHT22;22559;54.176;12.102;2023-03-21T08:54:28;9.00;99.90
36552;DHT22;22559;54.176;12.102;2023-03-21T08:56:54;9.10;99.90
36552;DHT22;22559;54.176;12.102;2023-03-21T08:59:20;9.10;99.90
36552;DHT22;22559;54.176;12.102;2023-03-21T09:01:46;9.10;99.90
36552;DHT22;22559;54.176;12.102;2023-03-21T09:04:12;9.20;99.90
36552;DHT22;22559;54.176;12.102;2023-03-21T09:06:40;9.20;99.90
36552;DHT22;22559;54.176;12.102;2023-03-21T09:09:10;9.20;99.90
36552;DHT22;22559;54.176;12.102;2023-03-21T09:11:35;9.20;99.90
36552;DHT22;22559;54.176;12.102;2023-03-21T09:14:01;9.20;99.90
36552;DHT22;22559;54.176;12.102;2023-03-21T09:16:27;9.30;99.90
36552;DHT22;22559;54.176;12.102;2023-03-21T09:18:52;9.40;99.90
36552;DHT22;22559;54.176;12.102;2023-03-21T09:21:22;9.40;99.90
36552;DHT22;22559;54.176;12.102;2023-03-21T09:23:49;9.60;99.90
36552;DHT22;22559;54.176;12.102;2023-03-21T09:26:21;9.60;99.90
36552;DHT22;22559;54.176;12.102;2023-03-21T09:28:48;9.60;99.90
36552;DHT22;22559;54.176;12.102;2023-03-21T09:31:14;9.70;99.90
36552;DHT22;22559;54.176;12.102;2023-03-21T09:33:47;9.70;99.90
36552;DHT22;22559;54.176;12.102;2023-03-21T09:36:15;9.80;99.90
36552;DHT22;22559;54.176;12.102;2023-03-21T09:38:44;9.80;99.90
36552;DHT22;22559;54.176;12.102;2023-03-21T09:41:32;9.80;99.90
36552;DHT22;22559;54.176;12.102;2023-03-21T09:50:17;9.70;99.90
36552;DHT22;22559;54.176;12.102;2023-03-21T09:52:45;9.70;99.90
36552;DHT22;22559;54.176;12.102;2023-03-21T09:55:36;9.70;99.90
36552;DHT22;22559;54.176;12.102;2023-03-21T09:58:21;9.80;99.90
36552;DHT22;22559;54.176;12.102;2023-03-21T10:00:52;9.80;99.90
36552;DHT22;22559;54.176;12.102;2023-03-21T10:03:28;9.80;99.90
36552;DHT22;22559;54.176;12.102;2023-03-21T10:05:56;9.90;99.90
36552;DHT22;22559;54.176;12.102;2023-03-21T10:08:37;9.90;99.90
36552;DHT22;22559;54.176;12.102;2023-03-21T10:11:09;10.00;99.90
36552;DHT22;22559;54.176;12.102;2023-03-21T10:13:42;10.20;99.90
36552;DHT22;22559;54.176;12.102;2023-03-21T10:16:12;10.20;99.90
36552;DHT22;22559;54.176;12.102;2023-03-21T10:18:40;10.20;99.90
36552;DHT22;22559;54.176;12.102;2023-03-21T10:21:08;10.20;99.90
36552;DHT22;22559;54.176;12.102;2023-03-21T10:23:38;10.10;99.90
36552;DHT22;22559;54.176;12.102;2023-03-21T10:26:05;10.10;99.90
36552;DHT22;22559;54.176;12.102;2023-03-21T10:28:36;10.20;99.90
36552;DHT22;22559;54.176;12.102;2023-03-21T10:31:07;10.10;99.90
36552;DHT22;22559;54.176;12.102;2023-03-21T10:33:38;10.10;99.90
36552;DHT22;22559;54.176;12.102;2023-03-21T10:36:12;10.10;99.90
36552;DHT22;22559;54.176;12.102;2023-03-21T10:38:45;10.10;99.90
36552;DHT22;22559;54.176;12.102;2023-03-21T10:41:11;10.10;99.90
36552;DHT22;22559;54.176;12.102;2023-03-21T10:43:38;10.10;99.90
36552;DHT22;22559;54.176;12.102;2023-03-21T10:46:17;10.10;99.90
36552;DHT22;22559;54.176;12.102;2023-03-21T10:48:50;10.10;99.90
36552;DHT22;22559;54.176;12.102;2023-03-21T10:51:20;10.10;99.90
36552;DHT22;22559;54.176;12.102;2023-03-21T10:53:58;10.20;99.90
36552;DHT22;22559;54.176;12.102;2023-03-21T10:56:29;10.20;99.90
36552;DHT22;22559;54.176;12.102;2023-03-21T10:58:57;10.30;99.90
36552;DHT22;22559;54.176;12.102;2023-03-21T11:01:35;10.30;99.90
36552;DHT22;22559;54.176;12.102;2023-03-21T11:04:28;10.30;99.90
36552;DHT22;22559;54.176;12.102;2023-03-21T11:07:00;10.30;99.90
36552;DHT22;22559;54.176;12.102;2023-03-21T11:09:49;10.30;99.90
36552;DHT22;22559;54.176;12.102;2023-03-21T11:12:17;10.30;99.90
36552;DHT22;22559;54.176;12.102;2023-03-21T11:14:46;10.30;99.90
36552;DHT22;22559;54.176;12.102;2023-03-21T11:17:26;10.30;99.90
36552;DHT22;22559;54.176;12.102;2023-03-21T11:19:57;10.40;99.90
36552;DHT22;22559;54.176;12.102;2023-03-21T11:22:28;10.40;99.90
36552;DHT22;22559;54.176;12.102;2023-03-21T11:25:00;10.40;99.90
36552;DHT22;22559;54.176;12.102;2023-03-21T11:27:27;10.50;99.90
36552;DHT22;22559;54.176;12.102;2023-03-21T11:29:55;10.60;99.90
36552;DHT22;22559;54.176;12.102;2023-03-21T11:34:58;10.70;99.90
36552;DHT22;22559;54.176;12.102;2023-03-21T11:42:50;10.90;99.90
36552;DHT22;22559;54.176;12.102;2023-03-21T11:47:42;10.90;99.90
36552;DHT22;22559;54.176;12.102;2023-03-21T11:52:58;10.90;99.90
36552;DHT22;22559;54.176;12.102;2023-03-21T11:58:31;10.90;99.90
36552;DHT22;22559;54.176;12.102;2023-03-21T12:10:10;10.90;99.90
36552;DHT22;22559;54.176;12.102;2023-03-21T12:18:36;10.90;99.90
36552;DHT22;22559;54.176;12.102;2023-03-21T12:21:17;10.90;99.90
36552;DHT22;22559;54.176;12.102;2023-03-21T12:24:07;11.00;99.90
36552;DHT22;22559;54.176;12.102;2023-03-21T12:34:50;11.10;99.90
36552;DHT22;22559;54.176;12.102;2023-03-21T12:40:04;11.20;99.90
36552;DHT22;22559;54.176;12.102;2023-03-21T12:45:23;11.20;99.90
36552;DHT22;22559;54.176;12.102;2023-03-21T12:47:57;11.10;99.90
36552;DHT22;22559;54.176;12.102;2023-03-21T12:50:28;11.10;99.90
36552;DHT22;22559;54.176;12.102;2023-03-21T12:53:15;11.10;99.90
36552;DHT22;22559;54.176;12.102;2023-03-21T12:55:42;11.10;99.90
36552;DHT22;22559;54.176;12.102;2023-03-21T12:58:15;11.10;99.90
36552;DHT22;22559;54.176;12.102;2023-03-21T13:00:57;11.10;99.90
36552;DHT22;22559;54.176;12.102;2023-03-21T13:03:36;11.10;99.90
36552;DHT22;22559;54.176;12.102;2023-03-21T13:06:05;11.10;99.90
36552;DHT22;22559;54.176;12.102;2023-03-21T13:08:41;11.10;99.90
36552;DHT22;22559;54.176;12.102;2023-03-21T13:11:13;11.00;99.90
36552;DHT22;22559;54.176;12.102;2023-03-21T13:14:00;11.00;99.90
36552;DHT22;22559;54.176;12.102;2023-03-21T13:16:40;11.00;99.90
36552;DHT22;22559;54.176;12.102;2023-03-21T13:19:30;11.00;99.90
36552;DHT22;22559;54.176;12.102;2023-03-21T13:24:56;10.80;99.90
36552;DHT22;22559;54.176;12.102;2023-03-21T13:27:37;10.80;99.90
36552;DHT22;22559;54.176;12.102;2023-03-21T13:30:27;10.70;99.90
36552;DHT22;22559;54.176;12.102;2023-03-21T13:33:10;10.80;99.90
36552;DHT22;22559;54.176;12.102;2023-03-21T13:35:38;10.80;99.90
36552;DHT22;22559;54.176;12.102;2023-03-21T13:38:23;10.80;99.90
36552;DHT22;22559;54.176;12.102;2023-03-21T13:40:50;10.80;99.90
36552;DHT22;22559;54.176;12.102;2023-03-21T13:59:16;10.90;99.90
36552;DHT22;22559;54.176;12.102;2023-03-21T14:01:58;10.90;99.90
36552;DHT22;22559;54.176;12.102;2023-03-21T14:04:29;10.80;99.90
36552;DHT22;22559;54.176;12.102;2023-03-21T14:07:01;10.80;99.90
36552;DHT22;22559;54.176;12.102;2023-03-21T14:09:41;10.90;99.90
36552;DHT22;22559;54.176;12.102;2023-03-21T14:12:13;10.90;99.90
36552;DHT22;22559;54.176;12.102;2023-03-21T14:14:45;10.90;99.90
36552;DHT22;22559;54.176;12.102;2023-03-21T14:17:23;10.90;99.90
36552;DHT22;22559;54.176;12.102;2023-03-21T14:19:54;11.00;99.90
36552;DHT22;22559;54.176;12.102;2023-03-21T14:22:21;11.00;99.90
36552;DHT22;22559;54.176;12.102;2023-03-21T14:25:00;11.00;99.90
36552;DHT22;22559;54.176;12.102;2023-03-21T14:27:32;11.10;99.90
36552;DHT22;22559;54.176;12.102;2023-03-21T14:29:58;11.10;99.90
36552;DHT22;22559;54.176;12.102;2023-03-21T14:32:27;11.10;99.90
36552;DHT22;22559;54.176;12.102;2023-03-21T14:34:59;11.10;99.90
36552;DHT22;22559;54.176;12.102;2023-03-21T14:37:46;11.00;99.90
36552;DHT22;22559;54.176;12.102;2023-03-21T14:40:44;11.00;99.90
36552;DHT22;22559;54.176;12.102;2023-03-21T14:43:11;11.00;99.90
36552;DHT22;22559;54.176;12.102;2023-03-21T14:45:38;10.90;99.90
36552;DHT22;22559;54.176;12.102;2023-03-21T14:48:11;10.90;99.90
36552;DHT22;22559;54.176;12.102;2023-03-21T14:50:41;10.90;99.90
36552;DHT22;22559;54.176;12.102;2023-03-21T14:53:36;10.90;99.90
36552;DHT22;22559;54.176;12.102;2023-03-21T14:58:40;10.90;99.90
36552;DHT22;22559;54.176;12.102;2023-03-21T15:01:14;10.90;99.90
36552;DHT22;22559;54.176;12.102;2023-03-21T15:03:43;10.80;99.90
36552;DHT22;22559;54.176;12.102;2023-03-21T15:06:12;10.80;99.90
36552;DHT22;22559;54.176;12.102;2023-03-21T15:08:39;10.80;99.90
36552;DHT22;22559;54.176;12.102;2023-03-21T15:11:06;10.80;99.90
36552;DHT22;22559;54.176;12.102;2023-03-21T15:13:47;10.80;99.90
36552;DHT22;22559;54.176;12.102;2023-03-21T15:16:18;10.80;99.90
36552;DHT22;22559;54.176;12.102;2023-03-21T15:18:44;10.80;99.90
36552;DHT22;22559;54.176;12.102;2023-03-21T15:21:19;10.80;99.90
36552;DHT22;22559;54.176;12.102;2023-03-21T15:23:48;10.80;99.90
36552;DHT22;22559;54.176;12.102;2023-03-21T15:26:17;10.80;99.90
36552;DHT22;22559;54.176;12.102;2023-03-21T15:28:45;10.70;99.90
36552;DHT22;22559;54.176;12.102;2023-03-21T15:31:17;10.70;99.90
36552;DHT22;22559;54.176;12.102;2023-03-21T15:33:47;10.70;99.90
36552;DHT22;22559;54.176;12.102;2023-03-21T15:36:20;10.70;99.90
36552;DHT22;22559;54.176;12.102;2023-03-21T15:38:46;10.70;99.90
36552;DHT22;22559;54.176;12.102;2023-03-21T15:46:45;10.70;99.90
36552;DHT22;22559;54.176;12.102;2023-03-21T15:51:50;10.60;99.90
36552;DHT22;22559;54.176;12.102;2023-03-21T15:54:23;10.60;99.90
36552;DHT22;22559;54.176;12.102;2023-03-21T15:56:54;10.60;99.90
36552;DHT22;22559;54.176;12.102;2023-03-21T15:59:24;10.60;99.90
36552;DHT22;22559;54.176;12.102;2023-03-21T16:01:51;10.60;99.90
36552;DHT22;22559;54.176;12.102;2023-03-21T16:04:17;10.60;99.90
36552;DHT22;22559;54.176;12.102;2023-03-21T16:06:56;10.60;99.90
36552;DHT22;22559;54.176;12.102;2023-03-21T16:09:22;10.60;99.90
36552;DHT22;22559;54.176;12.102;2023-03-21T16:11:49;10.60;99.90
36552;DHT22;22559;54.176;12.102;2023-03-21T16:14:15;10.60;99.90
36552;DHT22;22559;54.176;12.102;2023-03-21T16:16:43;10.60;99.90
36552;DHT22;22559;54.176;12.102;2023-03-21T16:19:09;10.60;99.90
36552;DHT22;22559;54.176;12.102;2023-03-21T16:21:35;10.50;99.90
36552;DHT22;22559;54.176;12.102;2023-03-21T16:24:03;10.50;99.90
36552;DHT22;22559;54.176;12.102;2023-03-21T16:26:52;10.50;99.90
36552;DHT22;22559;54.176;12.102;2023-03-21T16:29:18;10.50;99.90
36552;DHT22;22559;54.176;12.102;2023-03-21T16:31:46;10.50;99.90
36552;DHT22;22559;54.176;12.102;2023-03-21T16:34:12;10.50;99.90
36552;DHT22;22559;54.176;12.102;2023-03-21T16:36:39;10.50;99.90
36552;DHT22;22559;54.176;12.102;2023-03-21T16:41:44;10.50;99.90
36552;DHT22;22559;54.176;12.102;2023-03-21T16:44:10;10.50;99.90
36552;DHT22;22559;54.176;12.102;2023-03-21T16:46:36;10.50;99.90
36552;DHT22;22559;54.176;12.102;2023-03-21T16:49:03;10.40;99.90
36552;DHT22;22559;54.176;12.102;2023-03-21T16:51:34;10.40;99.90
36552;DHT22;22559;54.176;12.102;2023-03-21T16:54:01;10.40;99.90
36552;DHT22;22559;54.176;12.102;2023-03-21T16:56:33;10.40;99.90
36552;DHT22;22559;54.176;12.102;2023-03-21T16:59:00;10.40;99.90
36552;DHT22;22559;54.176;12.102;2023-03-21T17:01:26;10.30;99.90
36552;DHT22;22559;54.176;12.102;2023-03-21T17:03:53;10.30;99.90
36552;DHT22;22559;54.176;12.102;2023-03-21T17:06:21;10.30;99.90
36552;DHT22;22559;54.176;12.102;2023-03-21T17:08:49;10.30;99.90
36552;DHT22;22559;54.176;12.102;2023-03-21T17:11:17;10.30;99.90
36552;DHT22;22559;54.176;12.102;2023-03-21T17:13:45;10.20;99.90
36552;DHT22;22559;54.176;12.102;2023-03-21T17:16:13;10.20;99.90
36552;DHT22;22559;54.176;12.102;2023-03-21T17:18:39;10.20;99.90
36552;DHT22;22559;54.176;12.102;2023-03-21T17:23:36;10.20;99.90
36552;DHT22;22559;54.176;12.102;2023-03-21T17:26:02;10.20;99.90
36552;DHT22;22559;54.176;12.102;2023-03-21T17:28:27;10.20;99.90
36552;DHT22;22559;54.176;12.102;2023-03-21T17:30:53;10.20;99.90
36552;DHT22;22559;54.176;12.102;2023-03-21T17:33:18;10.20;99.90
36552;DHT22;22559;54.176;12.102;2023-03-21T17:35:44;10.20;99.90